Time,TemperatureF,DewpointF,PressureIn,WindDirection,WindDirectionDegrees,WindSpeedMPH,WindSpeedGustMPH,Humidity,HourlyPrecipIn,Conditions,Clouds,dailyrainin,SoftwareType,DateUTC
2013-11-14 00:00:00,36.3,35.8,29.09,NE,45,0.0,0.0,98,0.00,,,0.00,VWS V14.01,2013-11-14 08:00:00,
2013-11-14 00:05:00,36.3,35.8,29.09,NE,45,0.0,0.0,98,0.00,,,0.00,VWS V14.01,2013-11-14 08:05:00,
2013-11-14 00:10:00,36.3,35.8,29.09,NE,45,0.0,0.0,98,0.00,,,0.00,VWS V14.01,2013-11-14 08:10:00,
2013-11-14 00:15:00,36.3,35.8,29.09,NE,45,0.0,0.0,98,0.00,,,0.00,VWS V14.01,2013-11-14 08:15:00,
2013-11-14 00:20:00,36.1,35.6,29.09,NE,45,0.0,0.0,98,0.00,,,0.00,VWS V14.01,2013-11-14 08:20:00,
2013-11-14 00:25:00,36.3,35.8,29.09,NE,45,0.0,0.0,98,0.00,,,0.00,VWS V14.01,2013-11-14 08:25:00,
2013-11-14 00:30:00,36.7,36.2,29.09,WSW,248,0.0,0.0,98,0.00,,,0.00,VWS V14.01,2013-11-14 08:30:00,
2013-11-14 00:35:00,36.7,36.2,29.06,WSW,248,0.0,0.0,98,0.00,,,0.00,VWS V14.01,2013-11-14 08:35:00,
2013-11-14 00:40:00,36.9,36.3,29.06,WSW,248,0.0,0.0,98,0.00,,,0.00,VWS V14.01,2013-11-14 08:40:00,
2013-11-14 00:45:00,37.0,36.5,29.06,WSW,248,0.0,0.0,98,0.00,,,0.00,VWS V14.01,2013-11-14 08:45:00,
2013-11-14 00:50:00,37.2,36.7,29.06,WNW,292,0.0,0.0,98,0.00,,,0.00,VWS V14.01,2013-11-14 08:50:00,
2013-11-14 00:55:00,37.2,36.7,29.06,WNW,292,0.0,0.0,98,0.00,,,0.00,VWS V14.01,2013-11-14 08:55:00,
2013-11-14 01:00:00,37.0,36.5,29.06,WNW,292,0.0,0.0,98,0.00,,,0.00,VWS V14.01,2013-11-14 09:00:00,
2013-11-14 01:05:00,37.0,36.5,29.06,WNW,292,0.0,0.0,98,0.00,,,0.00,VWS V14.01,2013-11-14 09:05:00,
2013-11-14 01:10:00,37.0,36.5,29.06,WNW,292,0.0,0.0,98,0.00,,,0.00,VWS V14.01,2013-11-14 09:10:00,
2013-11-14 01:15:00,36.9,36.3,29.06,NNW,338,0.0,0.0,98,0.00,,,0.00,VWS V14.01,2013-11-14 09:15:00,
2013-11-14 01:20:00,36.9,36.3,29.03,NE,45,0.0,0.0,98,0.00,,,0.00,VWS V14.01,2013-11-14 09:20:00,
2013-11-14 01:25:00,37.0,36.5,29.03,NE,45,0.0,0.0,98,0.00,,,0.00,VWS V14.01,2013-11-14 09:25:00,
2013-11-14 01:30:00,36.9,36.3,29.03,NE,45,0.0,0.0,98,0.00,,,0.00,VWS V14.01,2013-11-14 09:30:00,
2013-11-14 01:35:00,36.9,36.3,29.03,NNW,338,0.0,0.0,98,0.00,,,0.00,VWS V14.01,2013-11-14 09:35:00,
2013-11-14 01:40:00,36.9,36.3,29.03,NNW,338,0.0,0.0,98,0.00,,,0.00,VWS V14.01,2013-11-14 09:40:00,
2013-11-14 01:45:00,36.9,36.3,29.03,North,0,0.0,0.0,98,0.00,,,0.00,VWS V14.01,2013-11-14 09:45:00,
2013-11-14 01:50:00,36.7,36.2,29.03,North,0,0.0,0.0,98,0.00,,,0.00,VWS V14.01,2013-11-14 09:50:00,
2013-11-14 01:55:00,36.5,36.0,29.03,North,0,0.0,0.0,98,0.00,,,0.00,VWS V14.01,2013-11-14 09:55:00,
2013-11-14 02:00:00,36.7,36.2,29.03,North,0,0.0,0.0,98,0.00,,,0.00,VWS V14.01,2013-11-14 10:00:00,
2013-11-14 02:05:00,36.3,35.8,29.03,North,0,0.0,0.0,98,0.00,,,0.00,VWS V14.01,2013-11-14 10:05:00,
2013-11-14 02:10:00,36.3,35.8,29.03,North,0,0.0,0.0,98,0.00,,,0.00,VWS V14.01,2013-11-14 10:10:00,
2013-11-14 02:15:00,36.1,35.6,29.03,North,0,0.0,0.0,98,0.00,,,0.00,VWS V14.01,2013-11-14 10:15:00,
2013-11-14 02:20:00,36.3,35.8,29.03,North,0,0.0,0.0,98,0.00,,,0.00,VWS V14.01,2013-11-14 10:20:00,
2013-11-14 02:25:00,36.5,36.0,29.03,North,0,0.0,0.0,98,0.00,,,0.00,VWS V14.01,2013-11-14 10:25:00,
2013-11-14 02:30:00,36.3,35.8,29.03,NNE,22,0.0,0.0,98,0.00,,,0.00,VWS V14.01,2013-11-14 10:30:00,
2013-11-14 02:35:00,36.3,35.8,29.00,WSW,248,0.0,0.0,98,0.00,,,0.00,VWS V14.01,2013-11-14 10:35:00,
2013-11-14 02:40:00,36.5,36.0,29.00,West,270,0.0,1.1,98,0.00,,,0.00,VWS V14.01,2013-11-14 10:40:00,
2013-11-14 02:45:00,36.5,36.0,29.00,ENE,68,0.0,1.6,98,0.00,,,0.00,VWS V14.01,2013-11-14 10:45:00,
2013-11-14 02:50:00,36.5,36.0,29.00,ENE,68,0.0,1.6,98,0.00,,,0.00,VWS V14.01,2013-11-14 10:50:00,
2013-11-14 02:55:00,36.7,36.2,29.00,ENE,68,0.0,1.6,98,0.00,,,0.00,VWS V14.01,2013-11-14 10:55:00,
2013-11-14 03:00:00,36.7,36.2,29.00,NE,45,0.0,1.6,98,0.00,,,0.00,VWS V14.01,2013-11-14 11:00:00,
2013-11-14 03:05:00,36.9,36.3,29.00,West,270,0.0,0.0,98,0.00,,,0.00,VWS V14.01,2013-11-14 11:05:00,
2013-11-14 03:10:00,36.9,36.3,29.00,West,270,0.0,0.0,98,0.00,,,0.00,VWS V14.01,2013-11-14 11:10:00,
2013-11-14 03:15:00,36.9,36.3,29.00,SW,225,0.0,0.0,98,0.00,,,0.00,VWS V14.01,2013-11-14 11:15:00,
2013-11-14 03:20:00,37.0,36.5,28.97,WNW,292,0.0,0.0,98,0.00,,,0.00,VWS V14.01,2013-11-14 11:20:00,
2013-11-14 03:25:00,37.0,36.5,28.97,WNW,292,0.0,0.0,98,0.00,,,0.00,VWS V14.01,2013-11-14 11:25:00,
2013-11-14 03:30:00,37.0,36.5,28.97,WNW,292,0.0,0.0,98,0.00,,,0.00,VWS V14.01,2013-11-14 11:30:00,
2013-11-14 03:35:00,37.2,36.7,28.97,WSW,248,1.3,1.6,98,0.00,,,0.00,VWS V14.01,2013-11-14 11:35:00,
2013-11-14 03:40:00,37.2,36.7,28.97,West,270,0.0,1.6,98,0.00,,,0.00,VWS V14.01,2013-11-14 11:40:00,
2013-11-14 03:45:00,37.2,36.7,28.97,West,270,0.0,1.6,98,0.00,,,0.00,VWS V14.01,2013-11-14 11:45:00,
2013-11-14 03:50:00,37.0,36.5,28.94,West,270,0.0,1.6,98,0.00,,,0.00,VWS V14.01,2013-11-14 11:50:00,
2013-11-14 03:55:00,37.0,36.5,28.94,West,270,0.0,1.6,98,0.00,,,0.00,VWS V14.01,2013-11-14 11:55:00,
2013-11-14 04:00:00,37.0,36.5,28.94,NE,45,1.3,1.6,98,0.00,,,0.00,VWS V14.01,2013-11-14 12:00:00,
2013-11-14 04:05:00,37.0,36.5,28.94,ENE,68,0.0,1.6,98,0.00,,,0.00,VWS V14.01,2013-11-14 12:05:00,
2013-11-14 04:10:00,37.0,36.5,28.94,WSW,248,1.1,1.6,98,0.00,,,0.00,VWS V14.01,2013-11-14 12:10:00,
2013-11-14 04:15:00,37.0,36.5,28.94,SW,225,0.0,1.6,98,0.00,,,0.00,VWS V14.01,2013-11-14 12:15:00,
2013-11-14 04:20:00,36.9,36.3,28.94,WSW,248,0.0,1.6,98,0.00,,,0.00,VWS V14.01,2013-11-14 12:20:00,
2013-11-14 04:25:00,36.9,36.3,28.94,WNW,292,0.0,1.6,98,0.00,,,0.00,VWS V14.01,2013-11-14 12:25:00,
2013-11-14 04:30:00,37.0,36.5,28.94,WSW,248,0.0,2.2,98,0.00,,,0.00,VWS V14.01,2013-11-14 12:30:00,
2013-11-14 04:35:00,36.9,36.3,28.94,ENE,68,0.0,0.0,98,0.00,,,0.00,VWS V14.01,2013-11-14 12:35:00,
2013-11-14 04:40:00,36.9,36.3,28.94,ENE,68,0.0,0.0,98,0.00,,,0.00,VWS V14.01,2013-11-14 12:40:00,
2013-11-14 04:45:00,36.7,36.2,28.94,ENE,68,0.0,0.0,98,0.00,,,0.00,VWS V14.01,2013-11-14 12:45:00,
2013-11-14 04:50:00,36.7,36.2,28.94,SSW,202,0.0,1.1,98,0.00,,,0.00,VWS V14.01,2013-11-14 12:50:00,
2013-11-14 04:55:00,36.7,36.2,28.94,NNW,338,0.0,1.1,98,0.00,,,0.00,VWS V14.01,2013-11-14 12:55:00,
2013-11-14 05:00:00,36.5,36.0,28.94,NNE,22,1.1,1.1,98,0.00,,,0.00,VWS V14.01,2013-11-14 13:00:00,
2013-11-14 05:05:00,36.3,35.8,28.94,NE,45,0.0,2.0,98,0.00,,,0.00,VWS V14.01,2013-11-14 13:05:00,
2013-11-14 05:10:00,36.3,35.8,28.94,NE,45,0.0,2.0,98,0.00,,,0.00,VWS V14.01,2013-11-14 13:10:00,
2013-11-14 05:15:00,36.5,36.0,28.94,NW,315,0.0,2.0,98,0.00,,,0.00,VWS V14.01,2013-11-14 13:15:00,
2013-11-14 05:20:00,36.5,36.0,28.97,West,270,0.0,2.0,98,0.00,,,0.00,VWS V14.01,2013-11-14 13:20:00,
2013-11-14 05:25:00,36.7,36.2,28.97,West,270,0.0,2.0,98,0.00,,,0.00,VWS V14.01,2013-11-14 13:25:00,
2013-11-14 05:30:00,36.7,36.2,28.97,North,0,0.0,2.0,98,0.00,,,0.00,VWS V14.01,2013-11-14 13:30:00,
2013-11-14 05:35:00,36.9,36.3,28.97,North,0,0.0,0.0,98,0.00,,,0.00,VWS V14.01,2013-11-14 13:35:00,
2013-11-14 05:40:00,36.9,36.3,28.97,ENE,68,1.1,1.6,98,0.00,,,0.00,VWS V14.01,2013-11-14 13:40:00,
2013-11-14 05:45:00,37.0,36.5,28.97,South,180,0.0,1.6,98,0.00,,,0.00,VWS V14.01,2013-11-14 13:45:00,
2013-11-14 05:50:00,37.0,36.5,28.97,WSW,248,0.0,1.6,98,0.00,,,0.00,VWS V14.01,2013-11-14 13:50:00,
2013-11-14 05:55:00,37.2,36.7,28.97,SW,225,0.0,1.6,98,0.00,,,0.00,VWS V14.01,2013-11-14 13:55:00,
2013-11-14 06:00:00,37.4,36.9,28.97,North,0,0.0,1.6,98,0.00,,,0.00,VWS V14.01,2013-11-14 14:00:00,
2013-11-14 06:05:00,37.4,36.9,28.97,ENE,68,0.0,0.0,98,0.00,,OVC019,0.00,VWS V14.01,2013-11-14 14:05:00,
2013-11-14 06:10:00,37.6,37.1,28.97,ENE,68,0.0,0.0,98,0.00,,OVC019,0.00,VWS V14.01,2013-11-14 14:10:00,
2013-11-14 06:15:00,37.8,37.2,28.97,ENE,68,0.0,0.0,98,0.00,,OVC019,0.00,VWS V14.01,2013-11-14 14:15:00,
2013-11-14 06:20:00,37.9,37.4,28.97,NNW,338,0.0,1.3,98,0.00,,OVC019,0.00,VWS V14.01,2013-11-14 14:20:00,
2013-11-14 06:25:00,38.1,37.6,28.97,West,270,0.0,1.3,98,0.00,,OVC019,0.00,VWS V14.01,2013-11-14 14:25:00,
2013-11-14 06:30:00,38.1,37.6,28.97,North,0,0.0,1.3,98,0.00,,OVC019,0.00,VWS V14.01,2013-11-14 14:30:00,
2013-11-14 06:35:00,38.5,38.0,28.97,WSW,248,0.0,0.0,98,0.00,,OVC019,0.00,VWS V14.01,2013-11-14 14:35:00,
2013-11-14 06:40:00,38.5,38.0,28.97,West,270,0.0,0.0,98,0.00,,OVC019,0.00,VWS V14.01,2013-11-14 14:40:00,
2013-11-14 06:45:00,38.7,38.2,28.97,West,270,0.0,0.0,98,0.00,,OVC019,0.00,VWS V14.01,2013-11-14 14:45:00,
2013-11-14 06:47:00,38.7,38.2,28.97,WNW,292,0.0,0.0,98,0.00,,OVC019,0.00,VWS V14.01,2013-11-14 14:47:00,
2013-11-14 06:52:00,38.8,38.3,28.97,WNW,292,0.0,0.0,98,0.00,,OVC019,0.00,VWS V14.01,2013-11-14 14:52:00,
2013-11-14 06:57:00,39.0,38.5,28.97,WNW,292,0.0,0.0,98,0.00,,OVC019,0.00,VWS V14.01,2013-11-14 14:57:00,
2013-11-14 07:00:00,39.0,38.5,28.97,WNW,292,0.0,0.0,98,0.00,,BKN075,0.00,VWS V14.01,2013-11-14 15:00:00,
2013-11-14 07:02:00,39.0,38.5,28.97,South,180,0.0,0.0,98,0.00,,,0.00,VWS V14.01,2013-11-14 15:02:00,
2013-11-14 07:07:00,39.0,38.5,28.97,South,180,1.6,1.6,98,0.00,,,0.00,VWS V14.01,2013-11-14 15:07:00,
2013-11-14 07:12:00,39.0,38.5,28.97,East,90,0.0,1.6,98,0.00,,,0.00,VWS V14.01,2013-11-14 15:12:00,
2013-11-14 07:17:00,39.0,38.5,28.97,East,90,0.0,1.6,98,0.00,,,0.00,VWS V14.01,2013-11-14 15:17:00,
2013-11-14 07:21:00,39.0,38.5,28.97,NE,45,0.0,1.6,98,0.00,,,0.00,VWS V14.01,2013-11-14 15:21:00,
2013-11-14 07:26:00,39.0,38.5,28.97,WNW,292,0.0,1.6,98,0.00,,,0.00,VWS V14.01,2013-11-14 15:26:00,
2013-11-14 07:30:00,39.2,38.7,28.97,WNW,292,0.0,1.6,98,0.00,,BKN075,0.00,VWS V14.01,2013-11-14 15:30:00,
2013-11-14 07:31:00,39.2,38.7,28.94,WNW,292,0.0,0.0,98,0.00,,,0.00,VWS V14.01,2013-11-14 15:31:00,
2013-11-14 07:36:00,39.2,38.7,28.94,ENE,68,0.0,0.0,98,0.00,,,0.00,VWS V14.01,2013-11-14 15:36:00,
2013-11-14 07:41:00,39.4,38.9,28.94,SW,225,0.0,0.0,98,0.00,,,0.00,VWS V14.01,2013-11-14 15:41:00,
2013-11-14 07:46:00,39.4,38.9,28.94,West,270,0.0,0.0,98,0.00,,,0.00,VWS V14.01,2013-11-14 15:46:00,
2013-11-14 07:51:00,39.6,39.0,28.94,WSW,248,0.0,0.0,98,0.00,,,0.00,VWS V14.01,2013-11-14 15:51:00,
2013-11-14 07:56:00,39.7,39.2,28.94,WSW,248,0.0,0.0,98,0.00,,,0.00,VWS V14.01,2013-11-14 15:56:00,
2013-11-14 08:00:00,39.9,39.4,28.94,WSW,248,0.0,0.0,98,0.00,,BKN075,0.00,VWS V14.01,2013-11-14 16:00:00,
2013-11-14 08:01:00,39.9,39.4,28.94,WSW,248,0.0,0.0,98,0.00,,OVC012,0.00,VWS V14.01,2013-11-14 16:01:00,
2013-11-14 08:06:00,40.5,39.9,28.94,WSW,248,0.0,0.0,98,0.00,,OVC012,0.00,VWS V14.01,2013-11-14 16:06:00,
2013-11-14 08:11:00,40.6,40.1,28.94,NE,45,0.0,0.0,98,0.00,,OVC012,0.00,VWS V14.01,2013-11-14 16:11:00,
2013-11-14 08:16:00,41.0,40.5,28.94,NE,45,0.0,0.0,98,0.00,,OVC012,0.00,VWS V14.01,2013-11-14 16:16:00,
2013-11-14 08:21:00,41.2,40.7,28.94,NE,45,0.0,0.0,98,0.00,,OVC012,0.00,VWS V14.01,2013-11-14 16:21:00,
2013-11-14 08:26:00,41.5,41.0,28.94,SW,225,0.0,0.0,98,0.00,,OVC012,0.00,VWS V14.01,2013-11-14 16:26:00,
2013-11-14 08:30:00,41.5,41.0,28.94,SW,225,0.0,0.0,98,0.00,,BKN075,0.00,VWS V14.01,2013-11-14 16:30:00,
2013-11-14 08:31:00,41.5,41.0,28.94,SW,225,0.0,0.0,98,0.00,,OVC012,0.00,VWS V14.01,2013-11-14 16:31:00,
2013-11-14 08:36:00,41.7,41.2,28.94,SSW,202,0.0,0.0,98,0.00,,OVC012,0.00,VWS V14.01,2013-11-14 16:36:00,
2013-11-14 08:41:00,41.9,41.4,28.94,SSW,202,0.0,0.0,98,0.00,,OVC012,0.00,VWS V14.01,2013-11-14 16:41:00,
2013-11-14 08:46:00,42.1,41.6,28.94,WSW,248,0.0,0.9,98,0.00,,OVC012,0.00,VWS V14.01,2013-11-14 16:46:00,
2013-11-14 08:51:00,42.3,41.7,28.94,WSW,248,0.0,0.9,98,0.00,,OVC012,0.00,VWS V14.01,2013-11-14 16:51:00,
2013-11-14 08:56:00,42.6,42.1,28.94,WSW,248,0.0,0.9,98,0.00,,OVC012,0.00,VWS V14.01,2013-11-14 16:56:00,
2013-11-14 09:00:00,42.6,42.1,28.94,SE,135,0.0,0.9,98,0.00,,BKN075,0.00,VWS V14.01,2013-11-14 17:00:00,
2013-11-14 09:01:00,42.6,42.1,28.94,SE,135,0.0,0.0,98,0.00,,,0.00,VWS V14.01,2013-11-14 17:01:00,
2013-11-14 09:06:00,42.4,41.9,28.94,SSW,202,0.0,0.0,98,0.00,,,0.00,VWS V14.01,2013-11-14 17:06:00,
2013-11-14 09:11:00,42.6,42.1,28.94,SSW,202,0.0,0.0,98,0.00,,,0.00,VWS V14.01,2013-11-14 17:11:00,
2013-11-14 09:16:00,42.8,42.3,28.94,WSW,248,0.0,0.0,98,0.00,,,0.00,VWS V14.01,2013-11-14 17:16:00,
2013-11-14 09:21:00,43.3,42.8,28.94,WSW,248,0.0,0.0,98,0.00,,,0.00,VWS V14.01,2013-11-14 17:21:00,
2013-11-14 09:26:00,43.5,43.0,28.94,WSW,248,0.0,0.0,98,0.00,,,0.00,VWS V14.01,2013-11-14 17:26:00,
2013-11-14 09:30:00,43.5,43.0,28.94,East,90,0.0,1.1,98,0.00,,BKN075,0.00,VWS V14.01,2013-11-14 17:30:00,
2013-11-14 09:31:00,43.7,43.2,28.94,East,90,0.0,0.0,98,0.00,,,0.00,VWS V14.01,2013-11-14 17:31:00,
2013-11-14 09:36:00,44.1,43.5,28.91,SE,135,0.0,0.0,98,0.00,,,0.00,VWS V14.01,2013-11-14 17:36:00,
2013-11-14 09:41:00,44.1,43.5,28.91,North,0,2.2,2.2,98,0.00,,,0.00,VWS V14.01,2013-11-14 17:41:00,
2013-11-14 09:46:00,43.9,43.3,28.91,NNE,22,0.0,2.7,98,0.00,,,0.00,VWS V14.01,2013-11-14 17:46:00,
2013-11-14 09:51:00,43.7,43.2,28.91,NE,45,4.3,4.3,98,0.00,,,0.00,VWS V14.01,2013-11-14 17:51:00,
2013-11-14 09:56:00,43.7,43.2,28.91,NNE,22,1.6,4.3,98,0.00,,,0.00,VWS V14.01,2013-11-14 17:56:00,
2013-11-14 10:00:00,43.7,43.2,28.91,North,0,3.1,4.3,98,0.00,,BKN075,0.00,VWS V14.01,2013-11-14 18:00:00,
2013-11-14 10:01:00,43.7,43.2,28.91,North,0,2.7,3.6,98,0.00,,OVC019,0.00,VWS V14.01,2013-11-14 18:01:00,
2013-11-14 10:06:00,44.1,43.5,28.91,NNW,338,1.6,3.6,98,0.00,,OVC019,0.00,VWS V14.01,2013-11-14 18:06:00,
2013-11-14 10:11:00,44.2,43.7,28.91,NNW,338,1.6,3.6,98,0.00,,OVC019,0.00,VWS V14.01,2013-11-14 18:11:00,
2013-11-14 10:16:00,44.4,43.9,28.91,NNW,338,3.1,3.8,98,0.00,,OVC019,0.00,VWS V14.01,2013-11-14 18:16:00,
2013-11-14 10:21:00,44.4,43.9,28.91,North,0,2.2,5.8,98,0.00,,OVC019,0.00,VWS V14.01,2013-11-14 18:21:00,
2013-11-14 10:26:00,44.6,44.1,28.91,NE,45,2.5,5.8,98,0.00,,OVC019,0.00,VWS V14.01,2013-11-14 18:26:00,
2013-11-14 10:30:00,44.8,44.2,28.91,NNE,22,2.2,5.8,98,0.00,,BKN075,0.00,VWS V14.01,2013-11-14 18:30:00,
2013-11-14 10:31:00,44.8,44.2,28.91,NNE,22,2.2,5.8,98,0.00,,OVC019,0.00,VWS V14.01,2013-11-14 18:31:00,
2013-11-14 10:36:00,45.3,44.8,28.94,NNW,338,2.7,4.3,98,0.00,,OVC019,0.00,VWS V14.01,2013-11-14 18:36:00,
2013-11-14 10:41:00,45.5,45.0,28.94,NNE,22,3.1,6.0,98,0.00,,OVC019,0.00,VWS V14.01,2013-11-14 18:41:00,
2013-11-14 10:46:00,45.5,45.0,28.94,NNW,338,2.7,6.5,98,0.00,,OVC019,0.00,VWS V14.01,2013-11-14 18:46:00,
2013-11-14 10:51:00,45.5,44.4,28.91,ESE,112,2.5,6.5,96,0.00,,OVC019,0.00,VWS V14.01,2013-11-14 18:51:00,
2013-11-14 10:56:00,45.9,44.8,28.91,WSW,248,2.5,6.5,96,0.00,,OVC019,0.00,VWS V14.01,2013-11-14 18:56:00,
2013-11-14 11:00:00,45.7,44.3,28.91,SSW,202,3.8,6.5,95,0.00,,BKN075,0.00,VWS V14.01,2013-11-14 19:00:00,
2013-11-14 11:01:00,45.9,44.2,28.91,SSW,202,3.8,3.8,94,0.00,,OVC021,0.00,VWS V14.01,2013-11-14 19:01:00,
2013-11-14 11:06:00,45.9,44.5,28.91,WSW,248,2.9,4.7,95,0.00,,OVC021,0.00,VWS V14.01,2013-11-14 19:06:00,
2013-11-14 11:11:00,46.6,45.2,28.91,WSW,248,2.5,4.7,95,0.00,,OVC021,0.00,VWS V14.01,2013-11-14 19:11:00,
2013-11-14 11:16:00,47.1,45.5,28.91,WNW,292,2.0,4.9,94,0.00,,OVC021,0.00,VWS V14.01,2013-11-14 19:16:00,
2013-11-14 11:21:00,47.3,45.1,28.91,WSW,248,2.5,4.9,92,0.00,,OVC021,0.00,VWS V14.01,2013-11-14 19:21:00,
2013-11-14 11:26:00,47.1,44.9,28.91,WSW,248,2.0,4.9,92,0.00,,OVC021,0.00,VWS V14.01,2013-11-14 19:26:00,
2013-11-14 11:30:00,46.9,43.9,28.91,WSW,248,0.9,7.6,89,0.00,,BKN075,0.00,VWS V14.01,2013-11-14 19:30:00,
2013-11-14 11:31:00,46.9,43.9,28.91,WSW,248,0.9,0.9,89,0.00,,OVC021,0.00,VWS V14.01,2013-11-14 19:31:00,
2013-11-14 11:36:00,46.8,44.6,28.91,SSW,202,1.1,2.5,92,0.00,,OVC021,0.00,VWS V14.01,2013-11-14 19:36:00,
2013-11-14 11:41:00,46.6,43.8,28.91,WSW,248,2.9,3.8,90,0.00,,OVC021,0.00,VWS V14.01,2013-11-14 19:41:00,
2013-11-14 11:46:00,46.6,43.5,28.91,WNW,292,2.7,4.0,89,0.00,,OVC021,0.00,VWS V14.01,2013-11-14 19:46:00,
2013-11-14 11:51:00,46.2,43.5,28.88,WSW,248,3.6,7.4,90,0.00,,OVC021,0.00,VWS V14.01,2013-11-14 19:51:00,
2013-11-14 11:56:00,45.9,43.1,28.88,SW,225,4.0,7.4,90,0.00,,OVC021,0.00,VWS V14.01,2013-11-14 19:56:00,
2013-11-14 12:00:00,45.7,43.2,28.88,SW,225,3.4,7.4,91,0.00,,BKN075,0.00,VWS V14.01,2013-11-14 20:00:00,
2013-11-14 12:01:00,45.7,43.2,28.88,SW,225,3.4,7.4,91,0.00,,BKN025,0.00,VWS V14.01,2013-11-14 20:01:00,
2013-11-14 12:06:00,45.5,43.3,28.88,SW,225,2.7,6.0,92,0.00,,BKN025,0.00,VWS V14.01,2013-11-14 20:06:00,
2013-11-14 12:11:00,45.5,43.6,28.88,WSW,248,3.8,6.0,93,0.00,,BKN025,0.00,VWS V14.01,2013-11-14 20:11:00,
2013-11-14 12:16:00,45.3,43.4,28.88,WSW,248,2.5,6.0,93,0.00,,BKN025,0.00,VWS V14.01,2013-11-14 20:16:00,
2013-11-14 12:21:00,45.5,43.9,28.88,WSW,248,2.5,6.0,94,0.00,,BKN025,0.00,VWS V14.01,2013-11-14 20:21:00,
2013-11-14 12:26:00,45.5,43.9,28.88,ESE,112,0.0,6.0,94,0.00,,BKN025,0.00,VWS V14.01,2013-11-14 20:26:00,
2013-11-14 12:30:00,45.7,44.3,28.88,WSW,248,2.9,6.0,95,0.00,,BKN075,0.00,VWS V14.01,2013-11-14 20:30:00,
2013-11-14 12:31:00,45.7,44.3,28.88,WSW,248,3.4,3.4,95,0.00,,BKN025,0.00,VWS V14.01,2013-11-14 20:31:00,
2013-11-14 12:35:00,45.9,44.5,28.88,West,270,3.1,3.8,95,0.00,,BKN025,0.00,VWS V14.01,2013-11-14 20:35:00,
2013-11-14 12:40:00,46.4,45.0,28.88,WNW,292,0.0,3.8,95,0.00,,BKN025,0.00,VWS V14.01,2013-11-14 20:40:00,
2013-11-14 12:45:00,46.6,45.0,28.88,SSW,202,3.6,4.7,94,0.00,,BKN025,0.00,VWS V14.01,2013-11-14 20:45:00,
2013-11-14 12:50:00,47.1,45.5,28.88,NW,315,2.0,4.7,94,0.00,,BKN025,0.00,VWS V14.01,2013-11-14 20:50:00,
2013-11-14 12:55:00,47.3,45.4,28.88,WSW,248,2.7,4.7,93,0.00,,BKN025,0.00,VWS V14.01,2013-11-14 20:55:00,
2013-11-14 13:00:00,47.3,45.4,28.88,NW,315,3.4,3.4,93,0.00,,BKN025,0.00,VWS V14.01,2013-11-14 21:00:00,
2013-11-14 13:05:00,47.3,44.8,28.88,NNE,22,2.2,4.3,91,0.00,,BKN025,0.00,VWS V14.01,2013-11-14 21:05:00,
2013-11-14 13:10:00,47.7,45.5,28.88,WSW,248,4.3,4.3,92,0.00,,BKN025,0.00,VWS V14.01,2013-11-14 21:10:00,
2013-11-14 13:15:00,47.7,44.6,28.88,West,270,1.6,4.3,89,0.00,,BKN025,0.00,VWS V14.01,2013-11-14 21:15:00,
2013-11-14 13:20:00,47.8,44.8,28.88,NNE,22,0.9,4.3,89,0.00,,BKN025,0.00,VWS V14.01,2013-11-14 21:20:00,
2013-11-14 13:25:00,47.7,43.4,28.88,NNW,338,0.0,5.6,85,0.00,,BKN025,0.00,VWS V14.01,2013-11-14 21:25:00,
2013-11-14 13:30:00,47.8,43.9,28.88,WSW,248,2.7,5.8,86,0.00,,BKN025,0.00,VWS V14.01,2013-11-14 21:30:00,
2013-11-14 13:35:00,48.0,44.3,28.88,NNW,338,2.7,6.7,87,0.00,,OVC030,0.00,VWS V14.01,2013-11-14 21:35:00,
2013-11-14 13:40:00,48.2,44.5,28.88,ENE,68,1.3,6.7,87,0.00,,OVC030,0.00,VWS V14.01,2013-11-14 21:40:00,
2013-11-14 13:45:00,48.2,44.2,28.88,WNW,292,1.3,6.7,86,0.00,,OVC030,0.00,VWS V14.01,2013-11-14 21:45:00,
2013-11-14 13:50:00,48.0,43.4,28.88,SW,225,6.3,6.7,84,0.00,,OVC030,0.00,VWS V14.01,2013-11-14 21:50:00,
2013-11-14 13:55:00,47.8,42.9,28.88,WNW,292,4.7,6.7,83,0.00,,OVC030,0.00,VWS V14.01,2013-11-14 21:55:00,
2013-11-14 14:00:00,47.7,41.8,28.88,SW,225,5.4,6.7,80,0.00,,OVC030,0.00,VWS V14.01,2013-11-14 22:00:00,
2013-11-14 14:05:00,47.5,41.0,28.88,SW,225,8.5,8.5,78,0.00,,OVC055,0.00,VWS V14.01,2013-11-14 22:05:00,
2013-11-14 14:10:00,47.8,41.3,28.88,WNW,292,1.3,8.5,78,0.00,,OVC055,0.00,VWS V14.01,2013-11-14 22:10:00,
2013-11-14 14:15:00,48.2,42.7,28.88,SW,225,2.7,8.5,81,0.00,,OVC055,0.00,VWS V14.01,2013-11-14 22:15:00,
2013-11-14 14:20:00,48.0,42.2,28.88,SSW,202,3.8,8.5,80,0.00,,OVC055,0.00,VWS V14.01,2013-11-14 22:20:00,
2013-11-14 14:25:00,48.0,42.2,28.88,WSW,248,1.1,8.5,80,0.00,,OVC055,0.00,VWS V14.01,2013-11-14 22:25:00,
2013-11-14 14:30:00,48.6,43.6,28.88,WNW,292,0.0,8.5,83,0.00,,OVC055,0.00,VWS V14.01,2013-11-14 22:30:00,
2013-11-14 14:35:00,48.2,42.3,28.88,SW,225,3.8,6.3,80,0.00,,OVC055,0.00,VWS V14.01,2013-11-14 22:35:00,
2013-11-14 14:40:00,48.0,43.1,28.88,WSW,248,1.6,6.3,83,0.00,,OVC055,0.00,VWS V14.01,2013-11-14 22:40:00,
2013-11-14 14:45:00,48.4,43.5,28.88,SSW,202,3.6,6.3,83,0.00,,OVC055,0.00,VWS V14.01,2013-11-14 22:45:00,
2013-11-14 14:50:00,48.2,42.7,28.88,SSW,202,1.6,6.3,81,0.00,,OVC055,0.00,VWS V14.01,2013-11-14 22:50:00,
2013-11-14 14:55:00,48.2,43.0,28.88,South,180,1.1,6.3,82,0.00,,OVC055,0.00,VWS V14.01,2013-11-14 22:55:00,
2013-11-14 15:00:00,48.0,42.8,28.88,NW,315,3.8,7.8,82,0.00,,OVC055,0.00,VWS V14.01,2013-11-14 23:00:00,
2013-11-14 15:05:00,47.7,42.4,28.88,WSW,248,6.5,6.5,82,0.00,,,0.00,VWS V14.01,2013-11-14 23:05:00,
2013-11-14 15:10:00,47.5,42.6,28.88,WSW,248,3.6,6.5,83,0.00,,,0.00,VWS V14.01,2013-11-14 23:10:00,
2013-11-14 15:15:00,47.5,42.9,28.88,SSE,158,7.2,7.2,84,0.00,,,0.00,VWS V14.01,2013-11-14 23:15:00,
2013-11-14 15:20:00,47.1,42.5,28.88,WSW,248,6.0,7.2,84,0.00,,,0.00,VWS V14.01,2013-11-14 23:20:00,
2013-11-14 15:25:00,46.9,42.4,28.88,WNW,292,2.9,8.5,84,0.00,,,0.00,VWS V14.01,2013-11-14 23:25:00,
2013-11-14 15:30:00,46.6,42.0,28.88,North,0,1.1,8.5,84,0.00,,,0.00,VWS V14.01,2013-11-14 23:30:00,
2013-11-14 15:35:00,46.4,42.1,28.88,West,270,2.7,3.4,85,0.00,,,0.00,VWS V14.01,2013-11-14 23:35:00,
2013-11-14 15:40:00,46.0,42.1,28.88,SSW,202,4.3,4.9,86,0.00,,,0.00,VWS V14.01,2013-11-14 23:40:00,
2013-11-14 15:45:00,46.0,42.4,28.88,NNW,338,2.5,4.9,87,0.00,,,0.00,VWS V14.01,2013-11-14 23:45:00,
2013-11-14 15:50:00,45.9,41.9,28.88,North,0,2.2,4.9,86,0.00,,,0.00,VWS V14.01,2013-11-14 23:50:00,
2013-11-14 15:55:00,45.9,42.2,28.88,ENE,68,2.0,4.9,87,0.00,,,0.00,VWS V14.01,2013-11-14 23:55:00,
2013-11-14 16:00:00,45.7,42.0,28.88,NNW,338,2.7,4.9,87,0.00,,,0.00,VWS V14.01,2013-11-15 00:00:00,
2013-11-14 16:05:00,45.5,41.9,28.88,NNE,22,2.5,4.3,87,0.00,,,0.00,VWS V14.01,2013-11-15 00:05:00,
2013-11-14 16:10:00,45.3,41.7,28.88,North,0,1.6,4.3,87,0.00,,,0.00,VWS V14.01,2013-11-15 00:10:00,
2013-11-14 16:15:00,45.0,41.6,28.88,NW,315,0.0,4.3,88,0.00,,,0.00,VWS V14.01,2013-11-15 00:15:00,
2013-11-14 16:20:00,44.6,41.6,28.88,West,270,2.0,4.3,89,0.00,,,0.00,VWS V14.01,2013-11-15 00:20:00,
2013-11-14 16:25:00,44.4,41.7,28.88,SSW,202,2.5,6.3,90,0.00,,,0.00,VWS V14.01,2013-11-15 00:25:00,
2013-11-14 16:30:00,44.2,41.5,28.88,NW,315,2.5,6.3,90,0.00,,,0.00,VWS V14.01,2013-11-15 00:30:00,
2013-11-14 16:35:00,44.1,41.6,28.88,NNW,338,5.4,5.8,91,0.00,,,0.00,VWS V14.01,2013-11-15 00:35:00,
2013-11-14 16:40:00,44.1,41.6,28.88,North,0,3.1,5.8,91,0.00,,,0.00,VWS V14.01,2013-11-15 00:40:00,
2013-11-14 16:45:00,43.9,41.4,28.88,NE,45,2.0,5.8,91,0.00,,,0.00,VWS V14.01,2013-11-15 00:45:00,
2013-11-14 16:50:00,43.7,41.5,28.85,NW,315,2.0,5.8,92,0.00,,,0.00,VWS V14.01,2013-11-15 00:50:00,
2013-11-14 16:55:00,43.5,41.3,28.85,NE,45,0.0,5.8,92,0.00,,,0.00,VWS V14.01,2013-11-15 00:55:00,
2013-11-14 17:00:00,43.2,41.0,28.85,NE,45,1.3,5.8,92,0.00,,,0.00,VWS V14.01,2013-11-15 01:00:00,
2013-11-14 17:05:00,43.0,40.8,28.88,ENE,68,0.0,2.0,92,0.00,,OVC049,0.00,VWS V14.01,2013-11-15 01:05:00,
2013-11-14 17:10:00,43.0,41.1,28.88,SW,225,0.0,2.0,93,0.00,,OVC049,0.00,VWS V14.01,2013-11-15 01:10:00,
2013-11-14 17:15:00,42.6,40.7,28.88,West,270,0.0,2.0,93,0.00,,OVC049,0.00,VWS V14.01,2013-11-15 01:15:00,
2013-11-14 17:20:00,42.4,40.6,28.88,West,270,0.0,2.0,93,0.00,,OVC049,0.00,VWS V14.01,2013-11-15 01:20:00,
2013-11-14 17:25:00,42.3,40.4,28.88,West,270,0.0,2.0,93,0.00,,OVC049,0.00,VWS V14.01,2013-11-15 01:25:00,
2013-11-14 17:30:00,42.3,40.7,28.88,WSW,248,0.0,2.0,94,0.00,,OVC049,0.00,VWS V14.01,2013-11-15 01:30:00,
2013-11-14 17:35:00,42.6,41.3,28.88,NNE,22,0.0,2.7,95,0.00,,OVC049,0.00,VWS V14.01,2013-11-15 01:35:00,
2013-11-14 17:40:00,42.8,41.7,28.88,NNW,338,2.5,4.9,96,0.00,,OVC049,0.00,VWS V14.01,2013-11-15 01:40:00,
2013-11-14 17:45:00,43.0,41.9,28.88,SW,225,0.0,4.9,96,0.00,,OVC049,0.00,VWS V14.01,2013-11-15 01:45:00,
2013-11-14 17:50:00,42.6,41.6,28.88,SE,135,1.3,4.9,96,0.00,,OVC049,0.00,VWS V14.01,2013-11-15 01:50:00,
2013-11-14 17:55:00,42.4,41.4,28.88,NE,45,0.0,4.9,96,0.00,,OVC049,0.00,VWS V14.01,2013-11-15 01:55:00,
2013-11-14 18:00:00,42.4,41.1,28.88,NE,45,0.0,4.9,95,0.00,,OVC049,0.00,VWS V14.01,2013-11-15 02:00:00,
2013-11-14 18:05:00,42.4,41.4,28.88,WSW,248,1.6,2.0,96,0.00,,,0.00,VWS V14.01,2013-11-15 02:05:00,
2013-11-14 18:09:00,42.4,41.4,28.88,South,180,0.0,2.0,96,0.00,,,0.00,VWS V14.01,2013-11-15 02:09:00,
2013-11-14 18:14:00,42.4,41.4,28.88,North,0,0.0,2.0,96,0.00,,,0.00,VWS V14.01,2013-11-15 02:14:00,
2013-11-14 18:19:00,42.4,41.4,28.88,North,0,0.0,2.0,96,0.00,,,0.00,VWS V14.01,2013-11-15 02:19:00,
2013-11-14 18:24:00,42.4,41.4,28.88,SSW,202,1.3,2.0,96,0.00,,,0.00,VWS V14.01,2013-11-15 02:24:00,
2013-11-14 18:29:00,42.4,41.4,28.88,West,270,0.0,2.0,96,0.00,,,0.00,VWS V14.01,2013-11-15 02:29:00,
2013-11-14 18:30:00,42.4,41.4,28.88,West,270,0.0,2.0,96,0.00,,BKN075,0.00,VWS V14.01,2013-11-15 02:30:00,
2013-11-14 18:34:00,42.4,41.7,28.85,WSW,248,1.1,1.6,97,0.00,,,0.00,VWS V14.01,2013-11-15 02:34:00,
2013-11-14 18:39:00,42.4,41.7,28.85,North,0,1.6,1.6,97,0.00,,,0.00,VWS V14.01,2013-11-15 02:39:00,
2013-11-14 18:44:00,42.4,41.7,28.85,NE,45,2.7,2.9,97,0.00,,,0.00,VWS V14.01,2013-11-15 02:44:00,
2013-11-14 18:49:00,42.8,42.0,28.88,NNW,338,1.3,2.9,97,0.00,,,0.00,VWS V14.01,2013-11-15 02:49:00,
2013-11-14 18:54:00,42.8,42.0,28.88,WNW,292,1.1,2.9,97,0.00,,,0.00,VWS V14.01,2013-11-15 02:54:00,
2013-11-14 18:59:00,42.8,42.0,28.88,North,0,1.6,2.9,97,0.00,,,0.00,VWS V14.01,2013-11-15 02:59:00,
2013-11-14 19:00:00,42.8,42.0,28.88,North,0,1.6,2.9,97,0.00,,BKN075,0.00,VWS V14.01,2013-11-15 03:00:00,
2013-11-14 19:04:00,42.8,42.0,28.85,NNE,22,1.6,4.0,97,0.00,,OVC075,0.00,VWS V14.01,2013-11-15 03:04:00,
2013-11-14 19:09:00,42.8,42.0,28.85,North,0,2.0,4.0,97,0.00,,OVC075,0.00,VWS V14.01,2013-11-15 03:09:00,
2013-11-14 19:14:00,42.8,42.0,28.85,ENE,68,0.0,4.0,97,0.00,,OVC075,0.00,VWS V14.01,2013-11-15 03:14:00,
2013-11-14 19:19:00,42.8,42.0,28.85,North,0,0.0,4.0,97,0.00,,OVC075,0.00,VWS V14.01,2013-11-15 03:19:00,
2013-11-14 19:24:00,42.8,42.0,28.85,WSW,248,0.0,4.0,97,0.00,,OVC075,0.00,VWS V14.01,2013-11-15 03:24:00,
2013-11-14 19:29:00,42.6,41.8,28.85,North,0,1.3,4.0,97,0.00,,OVC075,0.00,VWS V14.01,2013-11-15 03:29:00,
2013-11-14 19:30:00,42.6,41.8,28.85,North,0,2.0,4.0,97,0.00,,BKN075,0.00,VWS V14.01,2013-11-15 03:30:00,
2013-11-14 19:34:00,42.6,41.8,28.85,NE,45,3.1,3.1,97,0.00,,OVC075,0.00,VWS V14.01,2013-11-15 03:34:00,
2013-11-14 19:39:00,42.8,42.0,28.85,SSW,202,1.1,3.6,97,0.00,,OVC075,0.00,VWS V14.01,2013-11-15 03:39:00,
2013-11-14 19:44:00,42.4,41.7,28.85,SW,225,0.0,3.6,97,0.00,,OVC075,0.00,VWS V14.01,2013-11-15 03:44:00,
2013-11-14 19:49:00,42.3,41.5,28.85,WSW,248,0.0,3.6,97,0.00,,OVC075,0.00,VWS V14.01,2013-11-15 03:49:00,
2013-11-14 19:54:00,42.3,41.5,28.85,WNW,292,0.0,3.6,97,0.00,,OVC075,0.00,VWS V14.01,2013-11-15 03:54:00,
2013-11-14 19:59:00,42.3,41.5,28.85,ENE,68,0.0,3.6,97,0.00,,OVC075,0.00,VWS V14.01,2013-11-15 03:59:00,
2013-11-14 20:00:00,42.3,41.5,28.85,NE,45,0.9,3.6,97,0.00,,BKN075,0.00,VWS V14.01,2013-11-15 04:00:00,
2013-11-14 20:04:00,42.3,41.5,28.85,WNW,292,0.0,0.9,97,0.00,,OVC027,0.00,VWS V14.01,2013-11-15 04:04:00,
2013-11-14 20:09:00,42.3,41.5,28.85,WNW,292,0.0,1.1,97,0.00,,OVC027,0.00,VWS V14.01,2013-11-15 04:09:00,
2013-11-14 20:14:00,42.3,41.5,28.85,WSW,248,0.0,2.5,97,0.00,,OVC027,0.00,VWS V14.01,2013-11-15 04:14:00,
2013-11-14 20:19:00,42.1,41.3,28.85,NE,45,0.9,2.5,97,0.00,,OVC027,0.00,VWS V14.01,2013-11-15 04:19:00,
2013-11-14 20:24:00,42.1,41.3,28.85,North,0,0.0,2.9,97,0.00,,OVC027,0.00,VWS V14.01,2013-11-15 04:24:00,
2013-11-14 20:29:00,41.7,40.9,28.85,NNE,22,2.2,2.9,97,0.00,,OVC027,0.00,VWS V14.01,2013-11-15 04:29:00,
2013-11-14 20:30:00,41.7,40.9,28.85,NNE,22,0.9,2.9,97,0.00,,BKN075,0.00,VWS V14.01,2013-11-15 04:30:00,
2013-11-14 20:34:00,41.5,40.8,28.85,South,180,0.0,0.9,97,0.00,,OVC027,0.00,VWS V14.01,2013-11-15 04:34:00,
2013-11-14 20:39:00,41.4,40.6,28.85,East,90,1.1,1.3,97,0.00,,OVC027,0.00,VWS V14.01,2013-11-15 04:39:00,
2013-11-14 20:44:00,41.0,40.2,28.85,SSE,158,0.0,1.6,97,0.00,,OVC027,0.00,VWS V14.01,2013-11-15 04:44:00,
2013-11-14 20:49:00,40.8,40.0,28.85,West,270,0.0,1.6,97,0.00,,OVC027,0.00,VWS V14.01,2013-11-15 04:49:00,
2013-11-14 20:54:00,40.5,39.7,28.85,WSW,248,0.0,1.6,97,0.00,,OVC027,0.00,VWS V14.01,2013-11-15 04:54:00,
2013-11-14 20:59:00,40.5,39.7,28.85,NW,315,0.0,1.6,97,0.00,,OVC027,0.00,VWS V14.01,2013-11-15 04:59:00,
2013-11-14 21:00:00,40.5,39.7,28.85,NW,315,1.1,1.6,97,0.00,,BKN075,0.00,VWS V14.01,2013-11-15 05:00:00,
2013-11-14 21:01:00,40.5,39.7,28.85,NW,315,1.6,1.6,97,0.00,,OVC033,0.00,VWS V14.01,2013-11-15 05:01:00,
2013-11-14 21:06:00,40.3,39.5,28.85,WNW,292,2.0,2.0,97,0.00,,OVC033,0.00,VWS V14.01,2013-11-15 05:06:00,
2013-11-14 21:11:00,40.5,39.7,28.85,WNW,292,0.0,2.0,97,0.00,,OVC033,0.00,VWS V14.01,2013-11-15 05:11:00,
2013-11-14 21:16:00,40.3,39.8,28.85,West,270,0.0,2.0,98,0.00,,OVC033,0.00,VWS V14.01,2013-11-15 05:16:00,
2013-11-14 21:21:00,40.3,39.8,28.85,WNW,292,0.0,2.0,98,0.00,,OVC033,0.00,VWS V14.01,2013-11-15 05:21:00,
2013-11-14 21:26:00,40.3,39.8,28.85,West,270,0.0,2.0,98,0.00,,OVC033,0.00,VWS V14.01,2013-11-15 05:26:00,
2013-11-14 21:30:00,40.5,39.9,28.85,NNW,338,0.9,2.0,98,0.00,,BKN075,0.00,VWS V14.01,2013-11-15 05:30:00,
2013-11-14 21:31:00,40.5,39.9,28.85,North,0,1.6,1.6,98,0.00,,OVC033,0.00,VWS V14.01,2013-11-15 05:31:00,
2013-11-14 21:36:00,40.3,39.8,28.85,NE,45,0.9,2.0,98,0.00,,OVC033,0.00,VWS V14.01,2013-11-15 05:36:00,
2013-11-14 21:41:00,40.3,39.8,28.85,West,270,1.3,2.0,98,0.00,,OVC033,0.00,VWS V14.01,2013-11-15 05:41:00,
2013-11-14 21:46:00,40.3,39.8,28.85,NW,315,0.0,2.0,98,0.00,,OVC033,0.00,VWS V14.01,2013-11-15 05:46:00,
2013-11-14 21:51:00,39.7,39.2,28.85,NW,315,0.0,2.0,98,0.00,,OVC033,0.00,VWS V14.01,2013-11-15 05:51:00,
2013-11-14 21:56:00,39.6,39.0,28.85,NE,45,0.0,2.5,98,0.00,,OVC033,0.00,VWS V14.01,2013-11-15 05:56:00,
2013-11-14 22:00:00,39.6,39.0,28.85,SSW,202,0.0,2.5,98,0.00,,BKN075,0.00,VWS V14.01,2013-11-15 06:00:00,
2013-11-14 22:01:00,39.6,39.0,28.85,SSW,202,0.0,0.0,98,0.00,,,0.00,VWS V14.01,2013-11-15 06:01:00,
2013-11-14 22:06:00,39.2,38.7,28.85,NNW,338,0.0,0.0,98,0.00,,,0.00,VWS V14.01,2013-11-15 06:06:00,
2013-11-14 22:11:00,39.0,38.5,28.85,NE,45,0.0,0.0,98,0.00,,,0.00,VWS V14.01,2013-11-15 06:11:00,
2013-11-14 22:16:00,39.0,38.5,28.85,West,270,0.0,0.0,98,0.00,,,0.00,VWS V14.01,2013-11-15 06:16:00,
2013-11-14 22:21:00,39.0,38.5,28.85,NW,315,0.0,0.0,98,0.00,,,0.00,VWS V14.01,2013-11-15 06:21:00,
2013-11-14 22:26:00,39.0,38.5,28.85,WNW,292,0.0,0.0,98,0.00,,,0.00,VWS V14.01,2013-11-15 06:26:00,
2013-11-14 22:31:00,39.2,38.7,28.85,WNW,292,0.0,0.0,98,0.00,,,0.00,VWS V14.01,2013-11-15 06:31:00,
2013-11-14 22:36:00,39.2,38.7,28.85,WNW,292,0.0,0.0,98,0.00,,,0.00,VWS V14.01,2013-11-15 06:36:00,
2013-11-14 22:41:00,39.2,38.7,28.85,NNW,338,0.0,0.0,98,0.00,,,0.00,VWS V14.01,2013-11-15 06:41:00,
2013-11-14 22:46:00,39.2,38.7,28.85,NNW,338,0.9,2.2,98,0.00,,,0.00,VWS V14.01,2013-11-15 06:46:00,
2013-11-14 22:50:00,39.4,38.9,28.85,West,270,0.0,2.2,98,0.00,,,0.00,VWS V14.01,2013-11-15 06:50:00,
2013-11-14 22:55:00,39.6,39.0,28.85,NNE,22,2.5,2.7,98,0.00,,,0.00,VWS V14.01,2013-11-15 06:55:00,
2013-11-14 23:00:00,39.7,39.2,28.85,NW,315,0.0,0.0,98,0.00,,,0.00,VWS V14.01,2013-11-15 07:00:00,
2013-11-14 23:05:00,39.7,39.2,28.85,NW,315,0.0,2.0,98,0.00,,OVC035,0.00,VWS V14.01,2013-11-15 07:05:00,
2013-11-14 23:10:00,39.9,39.4,28.85,West,270,0.0,2.0,98,0.00,,OVC035,0.00,VWS V14.01,2013-11-15 07:10:00,
2013-11-14 23:15:00,39.9,39.4,28.85,West,270,0.0,2.0,98,0.00,,OVC035,0.00,VWS V14.01,2013-11-15 07:15:00,
2013-11-14 23:20:00,39.9,39.4,28.85,NNW,338,0.0,2.0,98,0.00,,OVC035,0.00,VWS V14.01,2013-11-15 07:20:00,
2013-11-14 23:25:00,39.9,39.4,28.85,NNE,22,0.0,2.0,98,0.00,,OVC035,0.00,VWS V14.01,2013-11-15 07:25:00,
2013-11-14 23:30:00,39.9,39.4,28.85,NNE,22,0.0,0.0,98,0.00,,OVC035,0.00,VWS V14.01,2013-11-15 07:30:00,
2013-11-14 23:35:00,39.9,39.4,28.85,North,0,0.0,0.0,98,0.00,,OVC035,0.00,VWS V14.01,2013-11-15 07:35:00,
2013-11-14 23:40:00,39.7,39.2,28.85,North,0,0.0,0.0,98,0.00,,OVC035,0.00,VWS V14.01,2013-11-15 07:40:00,
2013-11-14 23:45:00,39.6,39.0,28.85,NE,45,0.0,0.0,98,0.00,,OVC035,0.00,VWS V14.01,2013-11-15 07:45:00,
2013-11-14 23:50:00,39.6,39.0,28.85,NW,315,0.0,0.0,98,0.00,,OVC035,0.00,VWS V14.01,2013-11-15 07:50:00,
2013-11-14 23:55:00,39.4,38.9,28.85,West,270,0.0,0.0,98,0.00,,OVC035,0.00,VWS V14.01,2013-11-15 07:55:00,